Humidity-temperature Sensor

Selected Measurement Type: Relative Humidity

 
Relative Humidity [%]     6 entries per hour
Showing data from 9/17/2014 (00:00:00 Z) to 9/16/2014 (00:01:00 Z)
Previous Next [ Day | 3-Days | 7-Days ]
First Last
Prev [ Day | 3-Days | 7-Days ] Next
First Last

Start Time:     :
End Time:     :     
Time (in GMT) :00 :50 :40 :30 :20 :10
Previous Next [ Day | 3-Days | 7-Days ]
First Last
Prev [ Day | 3-Days | 7-Days ] Next
First Last


123 => good data
MM => data is determined as missing
-- => data not received/configured
Back to Top Back to Top
9/17/2014 00:00 to 23:10 73.67 73.69 73.21 74.88 75.43 76.11
9/16/2014 23:00 to 22:10 76.26 76.43 76.45 76.73 77.09 77.17
9/16/2014 22:00 to 21:10 77.62 77.91 78.38 78.36 78.12 78.00
9/16/2014 21:00 to 20:10 77.70 77.85 77.49 77.00 77.40 77.76
9/16/2014 20:00 to 19:10 77.59 77.98 76.83 76.68 76.94 77.19
9/16/2014 19:00 to 18:10 74.58 70.71 70.26 69.35 69.39 71.36
9/16/2014 18:00 to 17:10 72.04 71.98 73.02 73.02 73.95 74.50
9/16/2014 17:00 to 16:10 73.84 73.80 73.93 74.08 73.69 74.12
9/16/2014 16:00 to 15:10 73.74 74.01 73.84 74.27 75.28 75.24
9/16/2014 15:00 to 14:10 76.13 77.89 77.17 76.43 76.51 76.90
9/16/2014 14:00 to 13:10 76.58 76.20 76.90 76.81 76.94 77.28
9/16/2014 13:00 to 12:10 77.23 76.73 76.43 76.58 76.17 77.17
9/16/2014 12:00 to 11:10 77.28 77.09 76.56 76.94 77.57 77.19
9/16/2014 11:00 to 10:10 76.75 76.79 76.87 77.00 77.21 78.38
9/16/2014 10:00 to 9:10 78.44 77.70 77.64 77.64 77.21 77.57
9/16/2014 09:00 to 8:10 77.87 77.74 77.89 78.36 77.89 77.51
9/16/2014 08:00 to 7:10 77.36 77.43 77.45 76.92 77.51 77.53
9/16/2014 07:00 to 6:10 77.28 77.53 76.96 77.02 77.51 77.49
9/16/2014 06:00 to 5:10 77.36 77.59 77.96 78.21 78.17 77.98
9/16/2014 05:00 to 4:10 78.51 78.99 78.63 78.12 77.62 77.17
9/16/2014 04:00 to 3:10 77.40 77.79 77.66 78.02 78.12 78.04
9/16/2014 03:00 to 2:10 77.87 77.55 77.96 77.47 78.12 78.65
9/16/2014 02:00 to 1:10 78.29 77.19 76.34 76.13 75.69 75.45
9/16/2014 01:00 to 0:10 75.77 75.16 75.33 76.17 77.13 77.21